You are not logged in, Click here to log in
澳門國際機場MFM / VMMC 澳門
ICAO: VMMC Country: 澳門
Latitude: 22.1578 Longitude: 113.576
Total Arrivals: 53 Total Departures: 61
Latest Arrival: BR829 (RCKH-VMMC)Lun. Wang Latest Departure: NX197 (VMMC-ZUUU)Lun. Wang
Scenery:
METAR : VMMC 261130Z 20004KT CAVOK 22/20 Q1017 NOSIG

澳門國際機場MFM

You are accessing this site from IP address 34.239.151.158. Virtual Airline. CMS by phpVMS.Website designed by Zumeweb and edited by Theo Bearman.
There is 0 User(s) Online: | and 10 Guest(s) Online.
All information on this site is for fight simulation purposes only. This site is for flight logging for pilots of Virtual Airline&模擬飛行論壇 FlySim only.